KFOD

Fort Dodge Regional Airport

Fort Dodge, Iowa, USA
METAR KFOD 210456Z AUTO 34006KT 6SM BR CLR 18/17 A2998 RMK AO2 SLP175 T01780172 402170172 TSNO
Observed Flight Rules
Aug-21 @ 04:56 UTC (9 hours ago) Visual Flight Rules
Wind Visibility Clouds Conditions
340° at 6 knots 6 miles
  • Clear skies
  • Mist
Temperatures Readings
Current 18°C / 64°F
Dewpoint 17°C / 63°F
Humidity 94%
Altimeter 29.98" Hg
Pressure 1017.5 hPa
Elevation 355
METAR KFOD 210456Z AUTO 34006KT 6SM BR CLR 18/17 A2998 RMK AO2 SLP175 T01780172 402170172 TSNO
Observed Flight Rules
Aug-21 @ 04:56 UTC
(9 hours ago)
VFR
Wind Visibility
340° at 6 knots 6 miles
Clouds
  • Clear skies
Conditions
  • Mist
Temperature Dewpoint
18°C / 64°F 17°C / 63°F
Humidity Altimeter Pressure
94% 29.98" Hg 1017.5 hPa